M I D A S
Marine Information and Data Acquisition System
Tripno 998 of the Zeeleeuw from 2005-07-18 09:06:22 to 2005-07-18 11:51:56
Back to CruiseResearch ActivitiesStationsMapUnderway DataData graphs

EquipmentUnitsComment
TimeDGPSUTC
LatitudeDGPSDM.mWGS84
LongitudeDGPSDM.mWGS84
HeadingGyrodeg 
SOGDGPSknotsSpeed over ground
COGDGPSdegCourse over ground
DepthEcho soundermeters200 kHz
Missing or incorrect values are displayed as -999
Navigation data collected by the RV Zeeleeuw from 2005-07-18 08:07:49 to 2005-07-18 12:01:33
Time Latitude Longitude Heading SOG COG Depth
2005-07-18 08:08:54 51°13.707 2°55.869 133.7 -999 204 -999
2005-07-18 08:09:54 51°13.707 2°55.869 133.6 -999 230 -999
2005-07-18 08:10:53 51°13.707 2°55.868 133.5 -999 196 -999
2005-07-18 08:11:54 51°13.707 2°55.868 133.5 -999 17 -999
2005-07-18 08:12:54 51°13.706 2°55.869 133.4 -999 204 -999
2005-07-18 08:13:54 51°13.706 2°55.869 133.3 -999 8 -999
2005-07-18 08:14:54 51°13.706 2°55.869 133.2 -999 88 -999
2005-07-18 08:15:54 51°13.707 2°55.869 133.1 -999 120 -999
2005-07-18 08:16:53 51°13.707 2°55.869 133 -999 34 -999
2005-07-18 08:17:53 51°13.706 2°55.869 132.9 -999 225 -999
2005-07-18 08:18:54 51°13.707 2°55.869 132.9 -999 30 -999
2005-07-18 08:19:53 51°13.707 2°55.868 132.8 -999 308 -999
2005-07-18 08:20:53 51°13.707 2°55.868 132.8 -999 328 -999
2005-07-18 08:21:54 51°13.708 2°55.868 132.7 -999 237 -999
2005-07-18 08:22:54 51°13.707 2°55.868 132.6 -999 255 -999
2005-07-18 08:23:53 51°13.707 2°55.867 132.5 -999 158 -999
2005-07-18 08:24:54 51°13.706 2°55.87 132.4 -999 143 -999
2005-07-18 08:25:54 51°13.707 2°55.871 132.4 -999 226 -999
2005-07-18 08:26:54 51°13.706 2°55.868 132.3 -999 126 -999
2005-07-18 08:27:53 51°13.706 2°55.868 132.3 -999 272 -999
2005-07-18 08:28:53 51°13.706 2°55.869 132.2 -999 89 -999
2005-07-18 08:29:54 51°13.706 2°55.868 132.2 -999 108 -999
2005-07-18 08:30:54 51°13.706 2°55.867 132.2 -999 136 -999
2005-07-18 08:31:53 51°13.706 2°55.869 132.2 -999 223 -999
2005-07-18 08:32:54 51°13.706 2°55.868 132.2 -999 87 -999
2005-07-18 08:33:53 51°13.707 2°55.868 132.2 -999 60 -999
2005-07-18 08:34:54 51°13.706 2°55.868 132.2 -999 194 -999
2005-07-18 08:35:53 51°13.705 2°55.868 132.2 -999 15 -999
2005-07-18 08:36:54 51°13.705 2°55.868 132.2 -999 7 -999
2005-07-18 08:37:54 51°13.706 2°55.869 132.1 -999 341 -999
2005-07-18 08:38:54 51°13.706 2°55.869 132.1 -999 175 -999
2005-07-18 08:39:54 51°13.707 2°55.87 132.1 -999 350 -999
2005-07-18 08:40:54 51°13.706 2°55.87 132.1 -999 207 -999
2005-07-18 08:41:53 51°13.706 2°55.871 132.1 -999 353 -999
2005-07-18 08:42:53 51°13.706 2°55.87 132.1 -999 160 -999
2005-07-18 08:43:54 51°13.707 2°55.869 132.1 -999 157 -999
2005-07-18 08:44:53 51°13.707 2°55.869 132.1 -999 160 -999
2005-07-18 08:45:54 51°13.706 2°55.869 132.2 -999 164 -999
2005-07-18 08:46:53 51°13.707 2°55.869 132.2 -999 181 -999
2005-07-18 08:47:53 51°13.71 2°55.87 132.2 -999 188 -999
2005-07-18 08:48:53 51°13.707 2°55.869 132.3 0.1 183 -999
2005-07-18 08:49:53 51°13.707 2°55.869 132.3 -999 33 -999
2005-07-18 08:50:53 51°13.709 2°55.87 132.3 -999 19 -999
2005-07-18 08:51:53 51°13.706 2°55.869 132.3 -999 169 -999
2005-07-18 08:52:54 51°13.706 2°55.869 132.4 -999 177 -999
2005-07-18 08:53:51 51°13.707 2°55.871 132.4 -999 191 8.1
2005-07-18 08:54:52 51°13.707 2°55.87 132.2 0.1 171 8.1
2005-07-18 08:55:52 51°13.708 2°55.87 132.2 -999 185 8.1
2005-07-18 08:56:52 51°13.708 2°55.869 132.3 -999 196 8.1
2005-07-18 08:57:52 51°13.707 2°55.869 132.2 -999 58 8.1
2005-07-18 08:58:52 51°13.708 2°55.869 132.2 -999 356 8.1
2005-07-18 08:59:52 51°13.71 2°55.869 132 -999 86 8.1
2005-07-18 09:00:53 51°13.709 2°55.869 131.3 -999 151 8.1
2005-07-18 09:01:52 51°13.708 2°55.869 132.8 -999 258 8.1
2005-07-18 09:02:52 51°13.708 2°55.869 129.9 -999 207 8.1
2005-07-18 09:03:52 51°13.707 2°55.869 133.4 0.1 196 8.1
2005-07-18 09:04:53 51°13.706 2°55.868 132.3 -999 212 8.1
2005-07-18 09:05:52 51°13.706 2°55.869 129.6 0.1 105 8.1
2005-07-18 09:06:53 51°13.706 2°55.867 129.7 0.2 137 8.1
2005-07-18 09:07:52 51°13.686 2°55.905 134 2.4 131 8.9
2005-07-18 09:08:52 51°13.644 2°55.97 144.3 3.7 138 11.6
2005-07-18 09:09:52 51°13.597 2°56.025 145.8 3.4 142 12.1
2005-07-18 09:10:53 51°13.563 2°56.091 127 3.3 124 12.3
2005-07-18 09:11:53 51°13.548 2°56.168 90.9 3.1 86 12.4
2005-07-18 09:12:53 51°13.552 2°56.184 55.9 0.4 242 12.4
2005-07-18 09:13:53 51°13.551 2°56.184 10.8 0.4 65 -999
2005-07-18 09:14:53 51°13.548 2°56.182 338 1.8 337 -999
2005-07-18 09:15:52 51°13.591 2°56.056 300.3 6.9 296 12.1
2005-07-18 09:16:52 51°13.668 2°55.869 310.5 8.9 306 11.6
2005-07-18 09:17:53 51°13.755 2°55.703 321.6 7.7 316 12.1
2005-07-18 09:18:51 51°13.867 2°55.608 344.3 8.2 340 12.5
2005-07-18 09:19:53 51°14.008 2°55.528 344.9 8.8 340 13.3
2005-07-18 09:20:53 51°14.147 2°55.427 338.3 10.1 333 12.3
2005-07-18 09:21:53 51°14.289 2°55.253 321.5 10.8 316 12.8
2005-07-18 09:22:52 51°14.402 2°55.032 314.9 11 311 12.9
2005-07-18 09:23:52 51°14.591 2°54.942 352.6 13.2 353 12
2005-07-18 09:24:51 51°14.819 2°54.883 351 14.2 351 11.6
2005-07-18 09:25:51 51°15.051 2°54.816 349.1 14.2 350 10.9
2005-07-18 09:26:53 51°15.288 2°54.738 349.8 -999 -999 10.8
2005-07-18 09:27:53 51°15.519 2°54.659 347.1 14.2 347 11.7
2005-07-18 09:28:52 51°15.747 2°54.571 346.4 14.2 346 12.4
2005-07-18 09:29:53 51°15.976 2°54.486 347.3 14.1 347 13.1
2005-07-18 09:30:52 51°16.128 2°54.433 341.8 7.9 348 13.8
2005-07-18 09:31:52 51°16.224 2°54.383 318.5 4.7 334 13.8
2005-07-18 09:32:53 51°16.272 2°54.344 300.7 2.9 331 13.8
2005-07-18 09:33:53 51°16.297 2°54.354 286.1 1.5 353 13.8
2005-07-18 09:34:52 51°16.318 2°54.356 276.4 1.3 9 13.8
2005-07-18 09:35:51 51°16.338 2°54.366 278.3 1.3 20 13.8
2005-07-18 09:36:51 51°16.357 2°54.381 280.8 1.3 28 13.8
2005-07-18 09:37:52 51°16.377 2°54.4 282.4 1.5 32 13.8
2005-07-18 09:38:52 51°16.397 2°54.421 284.2 1.5 34 13.9
2005-07-18 09:39:52 51°16.418 2°54.444 285.2 1.5 37 13.7
2005-07-18 09:40:52 51°16.438 2°54.469 285.2 1.5 38 13.7
2005-07-18 09:41:51 51°16.457 2°54.494 284.5 1.5 39 13.7
2005-07-18 09:42:52 51°16.477 2°54.521 283.2 1.5 40 13.8
2005-07-18 09:43:53 51°16.496 2°54.547 282.6 1.5 41 13.8
2005-07-18 09:44:52 51°16.516 2°54.574 281.4 1.5 42 13.8
2005-07-18 09:45:53 51°16.536 2°54.602 281.6 1.6 43 13.6
2005-07-18 09:46:53 51°16.555 2°54.626 279.8 1.1 21 13.7
2005-07-18 09:47:53 51°16.533 2°54.6 211.2 3.3 198 13.6
2005-07-18 09:48:53 51°16.459 2°54.559 212.6 5.3 200 13.5
2005-07-18 09:49:53 51°16.382 2°54.483 226.1 5.7 221 13.6
2005-07-18 09:50:53 51°16.314 2°54.395 222.2 4.4 216 13.7
2005-07-18 09:51:53 51°16.267 2°54.342 228.2 3 220 13.7
2005-07-18 09:52:53 51°16.239 2°54.298 231.5 1.9 223 13.8
2005-07-18 09:53:52 51°16.222 2°54.278 227.2 0.9 208 13.7
2005-07-18 09:54:53 51°16.21 2°54.276 217.5 0.6 165 13.8
2005-07-18 09:55:53 51°16.203 2°54.289 209.4 0.7 115 13.8
2005-07-18 09:56:53 51°16.2 2°54.31 204.7 0.8 100 13.8
2005-07-18 09:57:52 51°16.198 2°54.328 217.6 0.6 95 13.8
2005-07-18 09:58:53 51°16.201 2°54.341 238.3 0.5 55 13.7
2005-07-18 09:59:53 51°16.21 2°54.351 260.3 0.8 32 13.8
2005-07-18 10:00:53 51°16.225 2°54.365 275 1.1 29 13.6
2005-07-18 10:01:52 51°16.241 2°54.377 270.7 1 24 13.8
2005-07-18 10:02:53 51°16.256 2°54.386 265.4 1 17 13.7
2005-07-18 10:03:52 51°16.271 2°54.393 266.2 0.9 18 13.8
2005-07-18 10:04:53 51°16.287 2°54.404 268.1 1 24 13.6
2005-07-18 10:05:53 51°16.302 2°54.418 269.2 1.1 33 13.7
2005-07-18 10:06:53 51°16.319 2°54.436 269.7 1.2 39 13.6
2005-07-18 10:07:53 51°16.335 2°54.456 270.2 1.3 38 13.6
2005-07-18 10:08:53 51°16.351 2°54.479 270.1 1.3 41 13.7
2005-07-18 10:09:53 51°16.361 2°54.483 245.9 0.6 4 13.5
2005-07-18 10:10:53 51°16.345 2°54.489 189 2.3 152 13.7
2005-07-18 10:11:53 51°16.322 2°54.579 108.5 4.9 87 13.5
2005-07-18 10:12:53 51°16.373 2°54.695 39.9 6 42 12.9
2005-07-18 10:13:53 51°16.456 2°54.774 19.5 5.3 25 13.1
2005-07-18 10:14:52 51°16.529 2°54.822 14.2 4.5 22 13.2
2005-07-18 10:15:53 51°16.597 2°54.867 15.1 4.2 23 13.3
2005-07-18 10:16:52 51°16.659 2°54.91 14.7 4.1 24 13.4
2005-07-18 10:17:53 51°16.721 2°54.956 17.8 4 26 13.2
2005-07-18 10:18:52 51°16.779 2°54.999 15.1 3.9 25 13.3
2005-07-18 10:19:53 51°16.839 2°55.041 12 3.9 22 13.2
2005-07-18 10:20:52 51°16.897 2°55.077 14.2 3.8 23 13.4
2005-07-18 10:21:53 51°16.955 2°55.126 26.8 3.8 31 13.2
2005-07-18 10:22:53 51°17.01 2°55.174 17.4 3.8 25 13.2
2005-07-18 10:23:53 51°17.067 2°55.212 13 3.7 22 13.3
2005-07-18 10:24:52 51°17.124 2°55.252 17.4 3.8 25 13.2
2005-07-18 10:25:53 51°17.197 2°55.271 338.2 5.3 347 12.9
2005-07-18 10:26:53 51°17.206 2°55.163 235.7 5.1 228 12.6
2005-07-18 10:27:52 51°17.082 2°55.092 204.5 10.2 197 13
2005-07-18 10:28:52 51°16.903 2°55.01 205.4 11.8 199 13
2005-07-18 10:29:53 51°16.71 2°54.924 200.6 10.7 193 13
2005-07-18 10:30:53 51°16.566 2°54.847 214.7 9 210 13.1
2005-07-18 10:31:52 51°16.474 2°54.692 235.5 7.1 232 13.1
2005-07-18 10:32:53 51°16.395 2°54.572 224.9 6.4 220 13.1
2005-07-18 10:33:53 51°16.338 2°54.456 242 4.9 239 13.5
2005-07-18 10:34:53 51°16.297 2°54.375 229.2 3.7 226 13.4
2005-07-18 10:35:53 51°16.255 2°54.311 230 2.9 227 13.4
2005-07-18 10:36:53 51°16.245 2°54.296 237.5 0.1 244 13.5
2005-07-18 10:37:53 51°16.248 2°54.296 249.3 0.3 4 13.3
2005-07-18 10:38:53 51°16.254 2°54.286 259.8 1.2 282 13.5
2005-07-18 10:39:53 51°16.29 2°54.125 299 8.4 302 13.5
2005-07-18 10:40:53 51°16.393 2°53.93 309.2 9.9 312 13.7
2005-07-18 10:41:52 51°16.52 2°53.682 308 12.9 309 13.7
2005-07-18 10:42:53 51°16.659 2°53.411 307.9 13.1 309 13.5
2005-07-18 10:43:53 51°16.802 2°53.149 312.2 13.1 312 12.8
2005-07-18 10:44:52 51°16.956 2°52.909 317 13.3 318 10.9
2005-07-18 10:45:53 51°17.131 2°52.672 321.5 13.5 321 11.5
2005-07-18 10:46:53 51°17.309 2°52.45 321.8 13.6 322 12.1
2005-07-18 10:47:53 51°17.489 2°52.227 321.7 13.6 322 12.5
2005-07-18 10:48:52 51°17.667 2°52.011 322 13.7 324 12.5
2005-07-18 10:49:53 51°17.847 2°51.782 322.2 13.6 322 12.1
2005-07-18 10:50:53 51°18.02 2°51.555 321.7 13.6 321 12.8
2005-07-18 10:51:53 51°18.198 2°51.323 321.1 13.7 321 13.9
2005-07-18 10:52:53 51°18.35 2°51.129 320 9.8 322 15
2005-07-18 10:53:53 51°18.451 2°51.019 327.6 6.5 332 15.4
2005-07-18 10:54:53 51°18.527 2°50.974 340.8 4.3 344 16
2005-07-18 10:55:53 51°18.537 2°50.991 356.3 0.9 73 -999
2005-07-18 10:56:53 51°18.546 2°51.012 354.6 1.1 59 16
2005-07-18 10:57:52 51°18.558 2°51.035 353.4 1.3 44 15.9
2005-07-18 10:58:53 51°18.574 2°51.057 352.7 1.4 40 15.9
2005-07-18 10:59:53 51°18.591 2°51.08 350.4 1.4 37 16.2
2005-07-18 11:00:53 51°18.61 2°51.103 347.1 1.4 35 16.1
2005-07-18 11:01:53 51°18.629 2°51.123 342.9 1.4 31 16.1
2005-07-18 11:02:53 51°18.653 2°51.14 345.4 1.7 20 16.1
2005-07-18 11:03:53 51°18.684 2°51.156 355.3 2.2 18 16
2005-07-18 11:04:52 51°18.723 2°51.18 23.3 2.9 28 16.3
2005-07-18 11:05:53 51°18.769 2°51.223 31 3.2 31 16.3
2005-07-18 11:06:53 51°18.816 2°51.264 23.1 3.2 27 16.3
2005-07-18 11:07:53 51°18.864 2°51.303 24.2 3.3 27 16.4
2005-07-18 11:08:53 51°18.912 2°51.338 14.4 3.2 23 16.5
2005-07-18 11:09:53 51°18.961 2°51.363 3.4 3 16 16.3
2005-07-18 11:10:53 51°19.009 2°51.385 7.5 3 16 16.3
2005-07-18 11:11:53 51°19.053 2°51.422 29.5 3 32 17
2005-07-18 11:12:53 51°19.094 2°51.467 29.9 3 35 17.1
2005-07-18 11:13:53 51°19.135 2°51.51 27.7 2.9 35 17.2
2005-07-18 11:14:53 51°19.176 2°51.575 60.8 4.3 55 17
2005-07-18 11:15:53 51°19.17 2°51.685 140.6 4.3 114 17
2005-07-18 11:16:52 51°19.118 2°51.699 211.2 3.6 203 16.9
2005-07-18 11:17:53 51°19.009 2°51.587 214.6 9.3 210 16.9
2005-07-18 11:18:53 51°18.867 2°51.455 214.2 10.1 212 16.1
2005-07-18 11:19:53 51°18.727 2°51.306 213.5 10.2 210 15.8
2005-07-18 11:20:53 51°18.597 2°51.134 223.2 10.3 221 15.6
2005-07-18 11:21:53 51°18.501 2°50.98 231.9 5.9 231 15.8
2005-07-18 11:22:53 51°18.486 2°50.936 240.2 0.5 273 15.5
2005-07-18 11:23:53 51°18.488 2°50.925 236.2 0.4 295 15.5
2005-07-18 11:24:53 51°18.491 2°50.919 232.9 0.3 331 15.5
2005-07-18 11:25:53 51°18.497 2°50.917 230.8 0.4 352 15.6
2005-07-18 11:26:52 51°18.503 2°50.919 228.3 0.4 19 15.6
2005-07-18 11:27:53 51°18.506 2°50.919 224.1 0.2 241 15.5
2005-07-18 11:28:53 51°18.431 2°50.865 201.7 7.7 197 15.3
2005-07-18 11:29:53 51°18.244 2°50.897 167.8 12.2 170 14.7
2005-07-18 11:30:53 51°18.065 2°51.076 143.2 13 141 13.6
2005-07-18 11:31:53 51°17.92 2°51.336 136.2 13.2 131 12.3
2005-07-18 11:32:53 51°17.771 2°51.597 138.6 13.4 133 11.5
2005-07-18 11:33:52 51°17.621 2°51.841 140.8 13.2 135 11.7
2005-07-18 11:34:53 51°17.459 2°52.086 145.3 13 140 11.8
2005-07-18 11:35:52 51°17.295 2°52.3 145.6 13 143 11.8
2005-07-18 11:36:52 51°17.112 2°52.482 153.4 13 150 11.3
2005-07-18 11:37:53 51°16.921 2°52.666 153.2 13 149 11.1
2005-07-18 11:38:53 51°16.735 2°52.846 154 13.1 150 11.6
2005-07-18 11:39:53 51°16.548 2°53.029 153.5 13.2 148 13
2005-07-18 11:40:52 51°16.367 2°53.207 153.8 13.2 149 13.4
2005-07-18 11:41:53 51°16.169 2°53.372 159.1 13.2 154 13.1
2005-07-18 11:42:53 51°15.975 2°53.53 157.4 13.1 152 12.7
2005-07-18 11:43:52 51°15.789 2°53.688 157.6 13 153 12.3
2005-07-18 11:44:53 51°15.593 2°53.849 157.5 12.7 154 11.8
2005-07-18 11:45:52 51°15.402 2°53.999 157.1 12.9 155 11
2005-07-18 11:46:52 51°15.207 2°54.15 158.5 13 155 10.3
2005-07-18 11:47:52 51°15.013 2°54.305 157.5 13.1 153 9.8
2005-07-18 11:48:53 51°14.817 2°54.462 158.8 13.1 155 10.6
2005-07-18 11:49:53 51°14.626 2°54.633 152.3 13.3 148 11
2005-07-18 11:50:53 51°14.457 2°54.857 140.7 12.7 138 11.6
2005-07-18 11:51:53 51°14.336 2°55.103 122 11.6 119 11.6
2005-07-18 11:52:52 51°14.235 2°55.311 136 8.6 135 12.3
2005-07-18 11:53:52 51°14.13 2°55.415 156.9 7 156 11.5
2005-07-18 11:54:53 51°14.022 2°55.491 156.8 7.2 156 11.9
2005-07-18 11:55:53 51°13.907 2°55.573 157.5 7.7 156 11.9
2005-07-18 11:56:53 51°13.793 2°55.66 154.8 7.3 152 11.5
2005-07-18 11:57:53 51°13.714 2°55.769 132.9 5.9 132 13.8
2005-07-18 11:58:53 51°13.666 2°55.894 118.5 5.5 116 10.2
2005-07-18 11:59:52 51°13.641 2°55.987 119.7 3.4 116 10
2005-07-18 12:00:53 51°13.624 2°56.046 117 0.7 119 8.9